Time;durP1;ratioP1;P1;durP2;ratioP2;P2;SDS_P1;SDS_P2;PMS_P1;PMS_P2;Temp;Humidity;BMP_temperature;BMP_pressure;BME280_temperature;BME280_humidity;BME280_pressure;Samples;Min_cycle;Max_cycle;Signal;HPM_P1;HPM_P2
2021/12/02 00:02:06;;;;;;;10.02;2.25;;;;;;;;;;4991657;28;20126;-65
2021/12/02 00:04:33;;;;;;;9.43;2.47;;;;;;;;;;4989410;28;20041;-67
2021/12/02 00:06:59;;;;;;;9.30;2.40;;;;;;;;;;4989005;28;20045;-66
2021/12/02 00:09:24;;;;;;;10.25;2.15;;;;;;;;;;4992066;28;20026;-67
2021/12/02 00:11:50;;;;;;;9.43;2.35;;;;;;;;;;4985816;28;20073;-66
2021/12/02 00:14:22;;;;;;;10.57;2.70;;;;;;;;;;4987637;28;20034;-66
2021/12/02 00:22:11;;;;;;;9.57;2.08;;;;;;;;;;4990110;28;20060;-65
2021/12/02 00:24:39;;;;;;;5.53;1.73;;;;;;;;;;4992377;28;20042;-67
2021/12/02 00:27:07;;;;;;;9.25;2.30;;;;;;;;;;4991740;28;20061;-66
2021/12/02 00:29:34;;;;;;;11.25;2.75;;;;;;;;;;4988612;28;20513;-66
2021/12/02 00:32:03;;;;;;;10.02;2.33;;;;;;;;;;4988894;28;20161;-66
2021/12/02 00:34:29;;;;;;;8.27;2.05;;;;;;;;;;4980038;28;20113;-66
2021/12/02 00:36:57;;;;;;;9.15;2.10;;;;;;;;;;4988297;28;20118;-65
2021/12/02 00:39:22;;;;;;;5.88;2.08;;;;;;;;;;4987647;28;20074;-67
2021/12/02 00:41:48;;;;;;;13.98;2.80;;;;;;;;;;4988475;28;20034;-67
2021/12/02 00:44:15;;;;;;;10.60;2.00;;;;;;;;;;4992544;28;20042;-67
2021/12/02 00:46:43;;;;;;;8.73;2.20;;;;;;;;;;4991715;28;20034;-66
2021/12/02 00:49:12;;;;;;;7.82;2.25;;;;;;;;;;4974772;28;20031;-66
2021/12/02 00:51:39;;;;;;;8.57;1.80;;;;;;;;;;4986889;28;20042;-66
2021/12/02 00:54:07;;;;;;;16.65;5.20;;;;;;;;;;4991437;28;20066;-66
2021/12/02 00:56:34;;;;;;;17.50;4.07;;;;;;;;;;4992376;28;20058;-66
2021/12/02 00:59:00;;;;;;;11.90;2.97;;;;;;;;;;4986872;28;20042;-66
2021/12/02 01:01:27;;;;;;;10.32;1.92;;;;;;;;;;4989407;28;20077;-67
2021/12/02 01:03:57;;;;;;;8.75;2.15;;;;;;;;;;4987246;28;20034;-66
2021/12/02 01:06:24;;;;;;;8.63;2.72;;;;;;;;;;4989117;28;20121;-67
2021/12/02 01:08:49;;;;;;;9.82;2.35;;;;;;;;;;4984982;28;20044;-66
2021/12/02 01:11:17;;;;;;;13.73;2.20;;;;;;;;;;4980047;28;20392;-67
2021/12/02 01:13:43;;;;;;;9.82;2.30;;;;;;;;;;4982666;28;20045;-64
2021/12/02 01:16:08;;;;;;;6.53;1.95;;;;;;;;;;4985184;28;20060;-67
2021/12/02 01:18:34;;;;;;;11.05;2.20;;;;;;;;;;4984948;28;20047;-66
2021/12/02 01:21:01;;;;;;;7.90;1.80;;;;;;;;;;4984980;28;20026;-65
2021/12/02 01:23:30;;;;;;;10.55;1.80;;;;;;;;;;4991650;28;20388;-67
2021/12/02 01:26:04;;;;;;;10.77;2.00;;;;;;;;;;4985558;28;20121;-66
2021/12/02 01:28:31;;;;;;;8.10;1.50;;;;;;;;;;4980656;28;20096;-67
2021/12/02 01:30:57;;;;;;;9.63;2.33;;;;;;;;;;4986163;28;20884;-68
2021/12/02 01:33:25;;;;;;;7.10;1.63;;;;;;;;;;4983600;28;20034;-67
2021/12/02 01:35:54;;;;;;;4.85;1.50;;;;;;;;;;4979284;28;20042;-66
2021/12/02 01:38:22;;;;;;;8.18;1.60;;;;;;;;;;4990611;28;20637;-67
2021/12/02 01:40:48;;;;;;;6.28;1.48;;;;;;;;;;4987244;28;20058;-66
2021/12/02 01:43:17;;;;;;;6.78;1.50;;;;;;;;;;4973003;28;20408;-65
2021/12/02 01:45:42;;;;;;;6.57;1.70;;;;;;;;;;4980825;28;20062;-66
2021/12/02 01:48:19;;;;;;;6.45;2.10;;;;;;;;;;4984017;28;20433;-65
2021/12/02 01:51:01;;;;;;;8.75;2.80;;;;;;;;;;4983468;28;20035;-65
2021/12/02 01:53:31;;;;;;;10.25;2.00;;;;;;;;;;4976845;28;20034;-66
2021/12/02 01:56:13;;;;;;;13.52;2.20;;;;;;;;;;4990174;28;20117;-66
2021/12/02 01:58:49;;;;;;;7.95;1.70;;;;;;;;;;4985930;28;20053;-67
2021/12/02 02:01:16;;;;;;;6.40;1.73;;;;;;;;;;4975908;28;20033;-66
2021/12/02 02:03:42;;;;;;;11.40;2.15;;;;;;;;;;4981491;28;20030;-66
2021/12/02 02:06:09;;;;;;;8.68;1.98;;;;;;;;;;4985203;28;20039;-67
2021/12/02 02:08:37;;;;;;;11.63;2.15;;;;;;;;;;4982105;28;20043;-67
2021/12/02 02:11:03;;;;;;;13.48;2.28;;;;;;;;;;4988407;28;20066;-67
2021/12/02 02:13:28;;;;;;;10.18;2.13;;;;;;;;;;4986894;28;20444;-66
2021/12/02 02:15:54;;;;;;;8.25;2.25;;;;;;;;;;4991194;28;20073;-66
2021/12/02 02:21:02;;;;;;;4.85;1.77;;;;;;;;;;4994776;28;20058;-66
2021/12/02 02:23:30;;;;;;;8.70;2.22;;;;;;;;;;4991282;28;20106;-66
2021/12/02 02:25:57;;;;;;;10.00;2.10;;;;;;;;;;4994060;28;20031;-66
2021/12/02 02:28:22;;;;;;;6.70;1.88;;;;;;;;;;4994763;28;20064;-66
2021/12/02 02:30:48;;;;;;;7.32;2.17;;;;;;;;;;4984980;28;20034;-65
2021/12/02 02:33:14;;;;;;;6.35;2.17;;;;;;;;;;4987909;28;20482;-67
2021/12/02 02:35:41;;;;;;;8.82;2.00;;;;;;;;;;4990926;28;20122;-66
2021/12/02 02:38:06;;;;;;;11.20;2.35;;;;;;;;;;4992564;28;20189;-67
2021/12/02 02:40:32;;;;;;;8.88;2.65;;;;;;;;;;4992087;28;20515;-66
2021/12/02 02:43:06;;;;;;;8.77;2.50;;;;;;;;;;4989479;28;20058;-66
2021/12/02 02:45:32;;;;;;;10.10;2.60;;;;;;;;;;4988577;28;20034;-66
2021/12/02 02:47:57;;;;;;;9.13;2.50;;;;;;;;;;4989972;28;20034;-66
2021/12/02 02:50:23;;;;;;;11.82;2.55;;;;;;;;;;4991571;28;20069;-66
2021/12/02 02:52:49;;;;;;;7.35;2.08;;;;;;;;;;4994985;28;20110;-65
2021/12/02 02:55:22;;;;;;;10.48;3.15;;;;;;;;;;4985153;28;20057;-64
2021/12/02 02:58:15;;;;;;;9.40;2.45;;;;;;;;;;4992426;28;20043;-65
2021/12/02 03:00:37;;;;;;;7.15;2.60;;;;;;;;;;5005261;28;20077;-67
2021/12/02 03:03:23;;;;;;;6.43;2.30;;;;;;;;;;4987865;28;20110;-65
2021/12/02 03:06:05;;;;;;;6.28;2.40;;;;;;;;;;4989714;28;20437;-65
2021/12/02 03:08:40;;;;;;;5.85;2.47;;;;;;;;;;4979397;28;20057;-67
2021/12/02 03:11:06;;;;;;;3.53;1.98;;;;;;;;;;4990014;28;20038;-67
2021/12/02 03:13:38;;;;;;;5.32;1.90;;;;;;;;;;4975360;28;20118;-68
2021/12/02 03:18:51;;;;;;;5.72;2.10;;;;;;;;;;4993284;28;20487;-68
2021/12/02 03:21:18;;;;;;;8.93;2.70;;;;;;;;;;4980841;28;20041;-68
2021/12/02 03:23:49;;;;;;;7.28;2.55;;;;;;;;;;4993607;28;20030;-67
2021/12/02 03:26:14;;;;;;;6.75;2.85;;;;;;;;;;4992685;28;20077;-66
2021/12/02 03:28:40;;;;;;;7.57;2.72;;;;;;;;;;4988491;28;20063;-66
2021/12/02 03:31:09;;;;;;;6.82;3.03;;;;;;;;;;4978209;28;20042;-67
2021/12/02 03:33:34;;;;;;;6.53;2.83;;;;;;;;;;4989067;28;20034;-67
2021/12/02 03:35:59;;;;;;;10.02;3.10;;;;;;;;;;4978994;28;20365;-67
2021/12/02 03:38:25;;;;;;;10.65;2.88;;;;;;;;;;4985796;28;20037;-67
2021/12/02 03:40:50;;;;;;;6.82;3.13;;;;;;;;;;4988333;28;20069;-65
2021/12/02 03:43:15;;;;;;;6.60;2.90;;;;;;;;;;4992552;28;20053;-67
2021/12/02 03:45:41;;;;;;;5.65;2.85;;;;;;;;;;4998479;28;20033;-67
2021/12/02 03:48:06;;;;;;;7.38;2.50;;;;;;;;;;4987551;28;20030;-67
2021/12/02 03:55:42;;;;;;;4.25;2.30;;;;;;;;;;5240850;22;20058;-67
2021/12/02 03:58:08;;;;;;;10.63;2.50;;;;;;;;;;4992783;28;20039;-66
2021/12/02 04:00:33;;;;;;;10.85;2.88;;;;;;;;;;5005976;28;20036;-66
2021/12/02 04:02:59;;;;;;;5.95;2.40;;;;;;;;;;5000438;28;20038;-65
2021/12/02 04:05:24;;;;;;;7.82;2.30;;;;;;;;;;4997585;28;20038;-66
2021/12/02 04:07:50;;;;;;;6.55;2.38;;;;;;;;;;5009634;28;20064;-66
2021/12/02 04:10:15;;;;;;;6.32;2.45;;;;;;;;;;4997438;28;20031;-65
2021/12/02 04:12:54;;;;;;;7.65;2.30;;;;;;;;;;4994932;28;20530;-65
2021/12/02 04:15:27;;;;;;;5.47;2.20;;;;;;;;;;4994554;28;20581;-66
2021/12/02 04:17:52;;;;;;;5.53;2.90;;;;;;;;;;5004012;28;20034;-66
2021/12/02 04:20:20;;;;;;;6.15;3.08;;;;;;;;;;5010846;28;20029;-65
2021/12/02 04:22:46;;;;;;;7.85;2.95;;;;;;;;;;5003745;28;20022;-63
2021/12/02 04:25:13;;;;;;;9.60;3.60;;;;;;;;;;5010220;28;20038;-66
2021/12/02 04:27:39;;;;;;;5.30;3.15;;;;;;;;;;5006337;28;20510;-65
2021/12/02 04:30:08;;;;;;;9.30;3.30;;;;;;;;;;5005303;28;20227;-67
2021/12/02 04:32:33;;;;;;;7.35;3.10;;;;;;;;;;5006576;28;20109;-66
2021/12/02 04:34:59;;;;;;;7.20;3.42;;;;;;;;;;5007212;28;20125;-66
2021/12/02 04:37:24;;;;;;;6.93;3.15;;;;;;;;;;5006828;28;20033;-66
2021/12/02 04:39:50;;;;;;;10.05;3.38;;;;;;;;;;5009179;28;20044;-66
2021/12/02 04:42:16;;;;;;;8.10;3.33;;;;;;;;;;5007120;28;20378;-66
2021/12/02 04:44:41;;;;;;;7.82;3.40;;;;;;;;;;5004174;28;20065;-65
2021/12/02 04:47:07;;;;;;;8.50;3.22;;;;;;;;;;4999351;28;20026;-65
2021/12/02 04:49:32;;;;;;;7.78;3.58;;;;;;;;;;4996792;28;20104;-65
2021/12/02 04:51:58;;;;;;;6.25;3.15;;;;;;;;;;5002089;28;20375;-65
2021/12/02 04:54:24;;;;;;;8.57;3.35;;;;;;;;;;5006976;28;20027;-65
2021/12/02 04:56:50;;;;;;;9.80;3.40;;;;;;;;;;5010774;28;20057;-65
2021/12/02 04:59:15;;;;;;;7.85;3.60;;;;;;;;;;5007011;28;20125;-66
2021/12/02 05:01:41;;;;;;;9.25;4.30;;;;;;;;;;5010006;28;20458;-66
2021/12/02 05:04:06;;;;;;;10.73;3.72;;;;;;;;;;5000606;28;20033;-66
2021/12/02 05:06:32;;;;;;;4.82;2.10;;;;;;;;;;5006503;28;20034;-66
2021/12/02 05:08:58;;;;;;;7.45;2.92;;;;;;;;;;4998814;28;20061;-66
2021/12/02 05:11:24;;;;;;;9.20;3.40;;;;;;;;;;5009483;28;20367;-66
2021/12/02 05:13:49;;;;;;;8.68;4.22;;;;;;;;;;5002796;28;20030;-66
2021/12/02 05:16:15;;;;;;;9.27;3.85;;;;;;;;;;4993984;28;20570;-66
2021/12/02 05:18:40;;;;;;;9.43;4.10;;;;;;;;;;5008410;28;20446;-66
2021/12/02 05:21:06;;;;;;;9.73;4.30;;;;;;;;;;5004513;28;20026;-66
2021/12/02 05:23:31;;;;;;;11.38;4.20;;;;;;;;;;5008409;28;20038;-66
2021/12/02 05:25:57;;;;;;;9.85;4.05;;;;;;;;;;5002907;28;20092;-66
2021/12/02 05:28:22;;;;;;;9.80;4.10;;;;;;;;;;5006766;28;20045;-66
2021/12/02 05:30:48;;;;;;;9.13;4.05;;;;;;;;;;4991222;28;20483;-66
2021/12/02 05:33:14;;;;;;;21.70;4.22;;;;;;;;;;4988803;28;20038;-66
2021/12/02 05:35:40;;;;;;;8.00;3.63;;;;;;;;;;5010390;28;20038;-66
2021/12/02 05:38:05;;;;;;;9.77;3.83;;;;;;;;;;5000164;28;20109;-66
2021/12/02 05:40:31;;;;;;;7.28;3.20;;;;;;;;;;5007731;28;20034;-66
2021/12/02 05:42:57;;;;;;;13.07;3.38;;;;;;;;;;4996660;28;20109;-66
2021/12/02 05:45:22;;;;;;;8.23;3.47;;;;;;;;;;5006504;28;20117;-65
2021/12/02 05:47:48;;;;;;;4.63;2.78;;;;;;;;;;4991712;28;20034;-66
2021/12/02 05:50:13;;;;;;;5.95;2.30;;;;;;;;;;4995196;28;20037;-66
2021/12/02 05:52:39;;;;;;;5.72;1.92;;;;;;;;;;4992373;28;20022;-66
2021/12/02 05:55:05;;;;;;;3.58;1.73;;;;;;;;;;4991145;28;20402;-65
2021/12/02 05:57:31;;;;;;;4.25;1.60;;;;;;;;;;4992302;28;20072;-65
2021/12/02 05:59:57;;;;;;;6.72;1.80;;;;;;;;;;4990557;28;20118;-66
2021/12/02 06:02:23;;;;;;;3.88;2.00;;;;;;;;;;4992994;28;20089;-65
2021/12/02 06:04:51;;;;;;;3.28;1.60;;;;;;;;;;4995044;28;20022;-65
2021/12/02 06:07:17;;;;;;;4.78;1.52;;;;;;;;;;4984775;28;20046;-67
2021/12/02 06:09:43;;;;;;;3.60;1.70;;;;;;;;;;4989199;28;20395;-62
2021/12/02 06:12:09;;;;;;;9.15;1.55;;;;;;;;;;4982458;28;20472;-64
2021/12/02 06:14:34;;;;;;;6.10;1.73;;;;;;;;;;4991154;28;20117;-62
2021/12/02 06:17:00;;;;;;;6.53;1.65;;;;;;;;;;4990604;28;20041;-65
2021/12/02 06:19:25;;;;;;;6.90;1.73;;;;;;;;;;4990183;28;20039;-64
2021/12/02 06:21:51;;;;;;;4.97;1.70;;;;;;;;;;4991116;28;22083;-64
2021/12/02 06:24:17;;;;;;;3.58;1.58;;;;;;;;;;4990485;28;20027;-63
2021/12/02 06:26:42;;;;;;;5.80;2.25;;;;;;;;;;4990379;28;20062;-64
2021/12/02 06:29:08;;;;;;;3.72;1.60;;;;;;;;;;4990517;28;20034;-62
2021/12/02 06:31:34;;;;;;;3.92;1.40;;;;;;;;;;4990027;28;20600;-64
2021/12/02 06:33:59;;;;;;;1.67;1.15;;;;;;;;;;4997948;28;20038;-63
2021/12/02 06:36:25;;;;;;;4.50;1.40;;;;;;;;;;4992256;28;20030;-65
2021/12/02 06:38:51;;;;;;;4.40;1.55;;;;;;;;;;4991718;28;20030;-63
2021/12/02 06:41:18;;;;;;;1.17;1.00;;;;;;;;;;4990809;28;20117;-64
2021/12/02 06:43:43;;;;;;;3.88;1.30;;;;;;;;;;4991571;28;20542;-64
2021/12/02 06:46:08;;;;;;;4.18;1.40;;;;;;;;;;4990279;28;20118;-63
2021/12/02 06:48:34;;;;;;;4.30;1.40;;;;;;;;;;4991434;28;20061;-63
2021/12/02 06:51:00;;;;;;;2.80;1.30;;;;;;;;;;4990894;28;20057;-65
2021/12/02 06:53:25;;;;;;;4.70;1.40;;;;;;;;;;4988214;28;20034;-64
2021/12/02 06:55:51;;;;;;;2.88;1.08;;;;;;;;;;4989950;28;20058;-63
2021/12/02 06:58:16;;;;;;;3.35;1.40;;;;;;;;;;4990453;28;20427;-65
2021/12/02 07:00:42;;;;;;;4.07;1.30;;;;;;;;;;4991266;28;20033;-63
2021/12/02 07:03:07;;;;;;;2.85;1.40;;;;;;;;;;4990522;28;20064;-63
2021/12/02 07:05:33;;;;;;;2.75;1.30;;;;;;;;;;4993345;28;20034;-63
2021/12/02 07:08:00;;;;;;;2.75;1.17;;;;;;;;;;4993131;28;20038;-65
2021/12/02 07:10:25;;;;;;;3.38;1.40;;;;;;;;;;4993270;28;20115;-64
2021/12/02 07:12:56;;;;;;;4.50;1.60;;;;;;;;;;4993279;28;21061;-63
2021/12/02 07:15:44;;;;;;;3.47;1.50;;;;;;;;;;4994116;28;20430;-62
2021/12/02 07:18:13;;;;;;;4.47;1.60;;;;;;;;;;4992612;28;20395;-64
2021/12/02 07:20:40;;;;;;;5.90;1.75;;;;;;;;;;4994557;28;20029;-62
2021/12/02 07:23:06;;;;;;;7.18;1.95;;;;;;;;;;4993806;28;20034;-65
2021/12/02 07:25:32;;;;;;;5.72;2.30;;;;;;;;;;4994744;28;20034;-63
2021/12/02 07:27:58;;;;;;;6.60;2.67;;;;;;;;;;4989128;28;20118;-64
2021/12/02 07:30:24;;;;;;;6.47;2.95;;;;;;;;;;4973818;28;20134;-63
2021/12/02 07:32:55;;;;;;;9.20;3.30;;;;;;;;;;4989928;28;20410;-62
2021/12/02 07:35:20;;;;;;;8.23;3.45;;;;;;;;;;4994436;28;20105;-62
2021/12/02 07:37:52;;;;;;;8.18;3.33;;;;;;;;;;4994184;28;20125;-63
2021/12/02 07:40:18;;;;;;;;;;;;;;;;;;4993532;28;20106;-63
2021/12/02 07:42:48;;;;;;;6.10;3.38;;;;;;;;;;4994522;28;20007;-62
2021/12/02 07:45:14;;;;;;;7.95;4.15;;;;;;;;;;4992082;28;20453;-62
2021/12/02 07:47:41;;;;;;;11.52;4.47;;;;;;;;;;4993106;28;20062;-63
2021/12/02 07:50:10;;;;;;;8.60;3.90;;;;;;;;;;4992846;28;20034;-63
2021/12/02 07:52:44;;;;;;;8.20;3.47;;;;;;;;;;4994901;28;20031;-64
2021/12/02 07:55:11;;;;;;;6.03;3.22;;;;;;;;;;5008080;28;20057;-64
2021/12/02 07:57:37;;;;;;;6.40;3.30;;;;;;;;;;4993827;28;20062;-64
2021/12/02 08:00:03;;;;;;;4.65;2.67;;;;;;;;;;4993460;28;20068;-64
2021/12/02 08:02:33;;;;;;;5.68;2.90;;;;;;;;;;4993674;28;20034;-64
2021/12/02 08:04:58;;;;;;;3.13;1.80;;;;;;;;;;4991978;28;20022;-64
2021/12/02 08:07:24;;;;;;;4.78;2.25;;;;;;;;;;4992564;28;20045;-64
2021/12/02 08:09:49;;;;;;;4.65;2.33;;;;;;;;;;4993763;28;20034;-63
2021/12/02 08:12:14;;;;;;;2.25;1.70;;;;;;;;;;4992644;28;20104;-65
2021/12/02 08:14:40;;;;;;;5.47;1.98;;;;;;;;;;4992600;28;20109;-64
2021/12/02 08:17:05;;;;;;;3.53;1.98;;;;;;;;;;4990360;28;20400;-64
2021/12/02 08:19:31;;;;;;;2.05;1.30;;;;;;;;;;4993512;28;20030;-63
2021/12/02 08:21:56;;;;;;;1.63;1.50;;;;;;;;;;4993519;28;20031;-63
2021/12/02 08:24:23;;;;;;;1.65;1.23;;;;;;;;;;4992736;28;20070;-63
2021/12/02 08:26:49;;;;;;;2.05;1.35;;;;;;;;;;4993402;28;20035;-63
2021/12/02 08:29:15;;;;;;;4.03;1.55;;;;;;;;;;4991783;28;20053;-64
2021/12/02 08:31:41;;;;;;;3.25;1.52;;;;;;;;;;4991307;28;20038;-63
2021/12/02 08:34:07;;;;;;;7.15;2.10;;;;;;;;;;5011356;28;20049;-64
2021/12/02 08:36:42;;;;;;;4.93;2.20;;;;;;;;;;4990312;28;20034;-61
2021/12/02 08:39:11;;;;;;;3.88;1.95;;;;;;;;;;4991401;28;20037;-65
2021/12/02 08:41:42;;;;;;;5.95;2.05;;;;;;;;;;4991107;28;20034;-64
2021/12/02 08:44:08;;;;;;;3.58;1.85;;;;;;;;;;4973345;28;20125;-63
2021/12/02 08:46:33;;;;;;;4.95;2.55;;;;;;;;;;4981696;28;20479;-64
2021/12/02 08:48:59;;;;;;;5.82;2.78;;;;;;;;;;4992433;28;20034;-66
2021/12/02 08:51:24;;;;;;;4.75;2.78;;;;;;;;;;4971281;28;20455;-64
2021/12/02 08:53:50;;;;;;;5.28;2.40;;;;;;;;;;4976724;28;20026;-65
2021/12/02 08:56:15;;;;;;;8.65;3.20;;;;;;;;;;4990897;28;20149;-65
2021/12/02 08:58:41;;;;;;;3.97;2.42;;;;;;;;;;4980396;28;20427;-63
2021/12/02 09:01:06;;;;;;;4.35;2.55;;;;;;;;;;4982792;28;20061;-64
2021/12/02 09:03:33;;;;;;;4.45;2.60;;;;;;;;;;4998042;28;20044;-64
2021/12/02 09:05:59;;;;;;;6.38;3.15;;;;;;;;;;4992909;28;20031;-65
2021/12/02 09:08:24;;;;;;;7.10;2.95;;;;;;;;;;4991918;28;20044;-65
2021/12/02 09:10:50;;;;;;;4.28;2.03;;;;;;;;;;4973049;28;21315;-65
2021/12/02 09:13:16;;;;;;;12.05;2.80;;;;;;;;;;4991782;28;20391;-65
2021/12/02 09:15:42;;;;;;;7.95;3.05;;;;;;;;;;4992676;28;20045;-63
2021/12/02 09:18:08;;;;;;;6.20;3.00;;;;;;;;;;4990531;28;20035;-66
2021/12/02 09:20:34;;;;;;;3.72;2.22;;;;;;;;;;4992410;28;20026;-64
2021/12/02 09:23:00;;;;;;;6.57;2.80;;;;;;;;;;4991708;28;20069;-64
2021/12/02 09:25:27;;;;;;;5.22;2.78;;;;;;;;;;4991956;28;20501;-66
2021/12/02 09:27:53;;;;;;;4.22;1.83;;;;;;;;;;4987978;28;20030;-64
2021/12/02 09:30:18;;;;;;;2.80;1.83;;;;;;;;;;4996290;28;20398;-66
2021/12/02 09:32:44;;;;;;;5.03;1.95;;;;;;;;;;4992257;28;20038;-64
2021/12/02 09:35:12;;;;;;;5.80;2.15;;;;;;;;;;4983789;28;20034;-64
2021/12/02 09:37:38;;;;;;;5.72;2.25;;;;;;;;;;4989463;28;20041;-65
2021/12/02 09:40:06;;;;;;;4.50;2.42;;;;;;;;;;4991257;28;20034;-65
2021/12/02 09:42:31;;;;;;;4.68;2.20;;;;;;;;;;4992341;28;20121;-64
2021/12/02 09:45:01;;;;;;;2.05;1.27;;;;;;;;;;4989622;28;20165;-65
2021/12/02 09:47:31;;;;;;;3.97;1.90;;;;;;;;;;4990307;28;20101;-66
2021/12/02 09:50:01;;;;;;;6.57;2.43;;;;;;;;;;4992356;28;20038;-65
2021/12/02 09:52:32;;;;;;;3.45;1.80;;;;;;;;;;4989948;28;20038;-64
2021/12/02 09:55:03;;;;;;;7.45;2.20;;;;;;;;;;4991819;28;20459;-65
2021/12/02 09:57:34;;;;;;;4.20;2.00;;;;;;;;;;4986425;28;20398;-64
2021/12/02 10:00:00;;;;;;;2.60;1.52;;;;;;;;;;5000970;28;20042;-64
2021/12/02 10:02:25;;;;;;;5.60;2.25;;;;;;;;;;4995147;28;20490;-63
2021/12/02 10:05:01;;;;;;;6.35;2.38;;;;;;;;;;4992886;28;20049;-66
2021/12/02 10:07:34;;;;;;;9.00;2.65;;;;;;;;;;4990701;28;20033;-66
2021/12/02 10:10:15;;;;;;;7.00;2.85;;;;;;;;;;4984768;28;20395;-65
2021/12/02 10:13:08;;;;;;;3.50;1.58;;;;;;;;;;5004191;28;20099;-65
2021/12/02 10:15:37;;;;;;;5.40;2.20;;;;;;;;;;4990190;28;20050;-64
2021/12/02 10:18:13;;;;;;;4.35;2.13;;;;;;;;;;4991108;28;20430;-67
2021/12/02 10:20:42;;;;;;;4.13;2.17;;;;;;;;;;4986192;28;20089;-66
2021/12/02 10:23:37;;;;;;;5.43;2.95;;;;;;;;;;4998297;28;20062;-66
2021/12/02 10:26:06;;;;;;;8.02;3.28;;;;;;;;;;5006999;28;20045;-65
2021/12/02 10:28:41;;;;;;;5.30;2.53;;;;;;;;;;5003528;28;20034;-64
2021/12/02 10:31:08;;;;;;;6.78;3.58;;;;;;;;;;4989538;28;20030;-64
2021/12/02 10:33:38;;;;;;;6.53;3.55;;;;;;;;;;4990502;28;20039;-65
2021/12/02 10:36:08;;;;;;;6.50;3.25;;;;;;;;;;4991478;28;20031;-65
2021/12/02 10:38:44;;;;;;;6.57;3.25;;;;;;;;;;4990457;28;20037;-65
2021/12/02 10:41:17;;;;;;;5.45;2.88;;;;;;;;;;4994145;28;20030;-64
2021/12/02 10:44:25;;;;;;;7.32;2.83;;;;;;;;;;4995417;28;20397;-65
2021/12/02 10:47:00;;;;;;;5.93;3.30;;;;;;;;;;4996610;28;20034;-66
2021/12/02 10:49:28;;;;;;;6.47;2.60;;;;;;;;;;4986216;28;20045;-65
2021/12/02 10:51:56;;;;;;;4.88;2.85;;;;;;;;;;4996880;28;20074;-65
2021/12/02 10:54:25;;;;;;;5.75;3.00;;;;;;;;;;4994686;28;20117;-67
2021/12/02 10:56:59;;;;;;;7.20;3.03;;;;;;;;;;4995133;28;20084;-65
2021/12/02 10:59:25;;;;;;;7.22;2.97;;;;;;;;;;4991746;28;20437;-65
2021/12/02 11:01:52;;;;;;;4.60;2.85;;;;;;;;;;5000153;28;20462;-64
2021/12/02 11:04:19;;;;;;;5.53;2.95;;;;;;;;;;4993817;28;20138;-65
2021/12/02 11:06:46;;;;;;;6.80;2.35;;;;;;;;;;4993412;28;20422;-63
2021/12/02 11:09:31;;;;;;;4.68;2.55;;;;;;;;;;4993605;28;20112;-66
2021/12/02 11:12:23;;;;;;;5.55;2.63;;;;;;;;;;4994670;28;20030;-65
2021/12/02 11:14:56;;;;;;;4.40;2.20;;;;;;;;;;4994950;28;20039;-65
2021/12/02 11:17:23;;;;;;;4.13;2.35;;;;;;;;;;4993767;28;20042;-67
2021/12/02 11:19:51;;;;;;;4.32;2.25;;;;;;;;;;4992927;28;20034;-65
2021/12/02 11:22:20;;;;;;;3.75;2.38;;;;;;;;;;4993528;28;20541;-66
2021/12/02 11:24:47;;;;;;;5.47;2.08;;;;;;;;;;4993595;28;20034;-65
2021/12/02 11:27:21;;;;;;;5.40;2.30;;;;;;;;;;4994016;28;20038;-65
2021/12/02 11:30:05;;;;;;;3.80;2.20;;;;;;;;;;4992042;28;20163;-65
2021/12/02 11:32:46;;;;;;;5.60;2.60;;;;;;;;;;4987882;28;20082;-65
2021/12/02 11:35:22;;;;;;;3.92;1.80;;;;;;;;;;4974502;28;20031;-65
2021/12/02 11:37:55;;;;;;;4.85;2.50;;;;;;;;;;4980914;28;20038;-64
2021/12/02 11:40:29;;;;;;;6.55;2.85;;;;;;;;;;4993815;28;20080;-65
2021/12/02 11:42:55;;;;;;;7.35;3.40;;;;;;;;;;4992451;28;20105;-66
2021/12/02 11:45:23;;;;;;;5.57;3.00;;;;;;;;;;4993317;28;20042;-66
2021/12/02 11:47:53;;;;;;;5.53;3.05;;;;;;;;;;4993113;28;20031;-64
2021/12/02 11:50:21;;;;;;;9.88;3.70;;;;;;;;;;4993338;28;20034;-65
2021/12/02 11:52:46;;;;;;;6.50;3.33;;;;;;;;;;4992852;28;20070;-64
2021/12/02 11:55:17;;;;;;;8.10;3.70;;;;;;;;;;4992135;28;20069;-64
2021/12/02 11:57:43;;;;;;;7.35;3.50;;;;;;;;;;4993379;28;20073;-66
2021/12/02 12:00:12;;;;;;;5.35;3.33;;;;;;;;;;4991314;28;20451;-68
2021/12/02 12:02:46;;;;;;;4.95;2.80;;;;;;;;;;4993696;28;20042;-67
2021/12/02 12:05:13;;;;;;;5.75;3.20;;;;;;;;;;4993451;28;20030;-68
2021/12/02 12:07:46;;;;;;;5.45;2.90;;;;;;;;;;4988425;28;20114;-65
2021/12/02 12:10:22;;;;;;;5.28;2.47;;;;;;;;;;5003843;28;20053;-64
2021/12/02 12:12:49;;;;;;;4.60;2.05;;;;;;;;;;4993699;28;20042;-65
2021/12/02 12:15:36;;;;;;;5.45;2.42;;;;;;;;;;4992272;28;20034;-66
2021/12/02 12:18:03;;;;;;;2.45;1.70;;;;;;;;;;4993135;28;20070;-67
2021/12/02 12:20:55;;;;;;;5.65;2.78;;;;;;;;;;4992937;28;20470;-67
2021/12/02 12:23:57;;;;;;;6.07;2.58;;;;;;;;;;4992651;28;20034;-65
2021/12/02 12:26:37;;;;;;;3.85;2.00;;;;;;;;;;4999225;28;20038;-63
2021/12/02 12:29:08;;;;;;;4.75;2.30;;;;;;;;;;4992672;28;20041;-67
2021/12/02 12:34:56;;;;;;;2.92;1.95;;;;;;;;;;5010013;28;20042;-66
2021/12/02 12:40:30;;;;;;;4.63;2.50;;;;;;;;;;4980608;28;20042;-64
2021/12/02 12:43:02;;;;;;;5.85;3.13;;;;;;;;;;4989288;28;20471;-64
2021/12/02 12:45:37;;;;;;;5.57;2.90;;;;;;;;;;4987038;28;20533;-66
2021/12/02 12:48:05;;;;;;;9.32;2.80;;;;;;;;;;4991596;28;20027;-67
2021/12/02 12:50:34;;;;;;;4.75;2.97;;;;;;;;;;4990364;28;20070;-65
2021/12/02 12:53:02;;;;;;;5.20;2.65;;;;;;;;;;4992879;28;20038;-65
2021/12/02 12:55:29;;;;;;;4.43;2.75;;;;;;;;;;4989036;28;20045;-65
2021/12/02 12:58:15;;;;;;;5.50;2.60;;;;;;;;;;4990861;28;20452;-65
2021/12/02 13:00:43;;;;;;;4.38;2.58;;;;;;;;;;4992562;28;20484;-66
2021/12/02 13:03:21;;;;;;;4.28;2.72;;;;;;;;;;4990923;28;20109;-64
2021/12/02 13:06:00;;;;;;;4.95;2.30;;;;;;;;;;4988051;28;20038;-65
2021/12/02 13:08:36;;;;;;;4.53;2.28;;;;;;;;;;4983094;28;20038;-65
2021/12/02 13:11:11;;;;;;;6.10;2.28;;;;;;;;;;4992449;28;20041;-66
2021/12/02 13:13:38;;;;;;;5.38;2.47;;;;;;;;;;4992943;28;20075;-66
2021/12/02 13:16:11;;;;;;;3.58;2.05;;;;;;;;;;4991769;28;20471;-66
2021/12/02 13:18:40;;;;;;;3.35;1.80;;;;;;;;;;4991530;28;20037;-64
2021/12/02 13:21:33;;;;;;;4.45;1.90;;;;;;;;;;4991636;28;20031;-67
2021/12/02 13:24:00;;;;;;;4.53;1.85;;;;;;;;;;4990712;28;20433;-63
2021/12/02 13:26:37;;;;;;;2.72;1.70;;;;;;;;;;4990656;28;20022;-62
2021/12/02 13:29:21;;;;;;;2.88;1.73;;;;;;;;;;4992436;28;20553;-65
2021/12/02 13:31:50;;;;;;;5.35;2.10;;;;;;;;;;4991265;28;20088;-63
2021/12/02 13:34:18;;;;;;;3.25;2.00;;;;;;;;;;4989822;28;20537;-63
2021/12/02 13:36:53;;;;;;;3.50;2.28;;;;;;;;;;4992409;28;20538;-64
2021/12/02 13:39:48;;;;;;;3.88;2.40;;;;;;;;;;4989503;28;20042;-63
2021/12/02 13:42:15;;;;;;;4.10;2.42;;;;;;;;;;4982750;28;20491;-66
2021/12/02 13:44:53;;;;;;;4.82;2.50;;;;;;;;;;4987848;28;20045;-66
2021/12/02 13:47:28;;;;;;;3.95;2.38;;;;;;;;;;4995927;28;20109;-65
2021/12/02 13:49:56;;;;;;;3.25;1.80;;;;;;;;;;4992060;28;20030;-65
2021/12/02 13:55:04;;;;;;;5.22;2.17;;;;;;;;;;4991717;28;20042;-64
2021/12/02 13:57:50;;;;;;;6.40;2.30;;;;;;;;;;4990318;28;20046;-66
2021/12/02 14:00:25;;;;;;;4.93;2.25;;;;;;;;;;4990528;28;20042;-63
2021/12/02 14:02:53;;;;;;;5.40;2.20;;;;;;;;;;4986514;28;20530;-62
2021/12/02 14:05:23;;;;;;;5.22;2.30;;;;;;;;;;4987597;28;20478;-62
2021/12/02 14:07:49;;;;;;;5.85;2.80;;;;;;;;;;4989239;28;20042;-66
2021/12/02 14:10:18;;;;;;;3.97;2.38;;;;;;;;;;4989712;28;20034;-63
2021/12/02 14:12:56;;;;;;;4.80;2.42;;;;;;;;;;4991210;28;20515;-63
2021/12/02 14:15:23;;;;;;;3.75;2.35;;;;;;;;;;4992251;28;20061;-63
2021/12/02 14:17:57;;;;;;;5.00;2.60;;;;;;;;;;4998762;28;20410;-63
2021/12/02 14:20:31;;;;;;;3.90;2.15;;;;;;;;;;4994990;28;20042;-64
2021/12/02 14:22:57;;;;;;;5.15;2.10;;;;;;;;;;4995655;28;20037;-62
2021/12/02 14:25:27;;;;;;;3.50;2.13;;;;;;;;;;4991848;28;20030;-62
2021/12/02 14:28:07;;;;;;;3.53;2.08;;;;;;;;;;4975358;28;20439;-63
2021/12/02 14:30:58;;;;;;;4.18;2.17;;;;;;;;;;4976662;28;20031;-63
2021/12/02 14:33:35;;;;;;;5.00;2.13;;;;;;;;;;4989537;28;20046;-65
2021/12/02 14:36:12;;;;;;;3.75;1.85;;;;;;;;;;4978031;28;20090;-65
2021/12/02 14:38:43;;;;;;;4.20;1.92;;;;;;;;;;4994346;28;20038;-63
2021/12/02 14:41:15;;;;;;;4.32;1.95;;;;;;;;;;4992896;28;20034;-63
2021/12/02 14:43:58;;;;;;;2.83;1.60;;;;;;;;;;4994439;28;20030;-68
2021/12/02 14:46:27;;;;;;;2.33;1.40;;;;;;;;;;4991910;28;20621;-67
2021/12/02 14:49:04;;;;;;;3.20;1.73;;;;;;;;;;4994779;28;20076;-62
2021/12/02 14:51:41;;;;;;;4.82;2.00;;;;;;;;;;4994471;28;20546;-64
2021/12/02 14:54:06;;;;;;;5.22;1.73;;;;;;;;;;4994095;28;20038;-64
2021/12/02 14:56:35;;;;;;;3.95;1.80;;;;;;;;;;4993663;28;20125;-65
2021/12/02 14:59:25;;;;;;;4.13;1.55;;;;;;;;;;4994901;28;20034;-64
2021/12/02 15:02:02;;;;;;;4.57;2.00;;;;;;;;;;4994873;28;20040;-62
2021/12/02 15:04:31;;;;;;;3.17;2.00;;;;;;;;;;4993810;28;20026;-62
2021/12/02 15:07:18;;;;;;;5.18;2.65;;;;;;;;;;4990198;28;20038;-65
2021/12/02 15:10:18;;;;;;;4.50;2.33;;;;;;;;;;4994756;28;20042;-63
2021/12/02 15:12:44;;;;;;;6.32;2.33;;;;;;;;;;4993536;28;20026;-63
2021/12/02 15:15:16;;;;;;;4.72;2.53;;;;;;;;;;4993049;28;20092;-63
2021/12/02 15:17:55;;;;;;;6.20;2.92;;;;;;;;;;4992293;28;20066;-64
2021/12/02 15:20:48;;;;;;;5.68;2.80;;;;;;;;;;4992093;28;20364;-65
2021/12/02 15:23:20;;;;;;;4.07;2.50;;;;;;;;;;4992646;28;20050;-66